createdAt,value
2018-04-13T00:00:22.540Z,11.00
2018-04-13T00:02:50.389Z,10.90
2018-04-13T00:05:18.231Z,11.00
2018-04-13T00:07:46.272Z,11.10
2018-04-13T00:10:14.132Z,11.00
2018-04-13T00:12:41.881Z,10.90
2018-04-13T00:15:09.906Z,10.90
2018-04-13T00:17:37.743Z,10.90
2018-04-13T00:20:07.048Z,10.80
2018-04-13T00:22:34.865Z,10.80
2018-04-13T00:25:02.899Z,10.80
2018-04-13T00:27:43.319Z,10.60
2018-04-13T00:30:12.277Z,10.50
2018-04-13T00:32:40.194Z,10.30
2018-04-13T00:35:08.998Z,10.30
2018-04-13T00:37:36.721Z,10.30
2018-04-13T00:40:04.536Z,10.40
2018-04-13T00:42:35.412Z,10.40
2018-04-13T00:45:03.243Z,10.10
2018-04-13T00:47:32.320Z,10.20
2018-04-13T00:50:01.072Z,10.20
2018-04-13T00:52:28.987Z,10.10
2018-04-13T00:54:57.424Z,10.20
2018-04-13T00:57:26.071Z,10.20
2018-04-13T00:59:54.756Z,10.20
2018-04-13T01:02:23.251Z,10.10
2018-04-13T01:04:51.094Z,10.10
2018-04-13T01:07:18.956Z,10.20
2018-04-13T01:09:47.572Z,10.20
2018-04-13T01:12:15.382Z,10.20
2018-04-13T01:14:43.139Z,10.20
2018-04-13T01:17:10.960Z,10.20
2018-04-13T01:19:39.749Z,10.10
2018-04-13T01:22:07.659Z,10.20
2018-04-13T01:24:35.679Z,10.20
2018-04-13T01:27:04.256Z,10.20
2018-04-13T01:29:32.145Z,10.10
2018-04-13T01:31:59.836Z,10.10
2018-04-13T01:34:29.270Z,10.10
2018-04-13T01:36:58.635Z,10.00
2018-04-13T01:39:26.410Z,10.00
2018-04-13T01:41:54.141Z,9.80
2018-04-13T01:44:22.806Z,9.90
2018-04-13T01:46:51.544Z,9.90
2018-04-13T01:49:19.377Z,9.90
2018-04-13T01:51:47.100Z,9.80
2018-04-13T01:54:14.984Z,9.70
2018-04-13T01:56:43.308Z,9.60
2018-04-13T01:59:11.054Z,9.70
2018-04-13T02:01:38.766Z,9.70
2018-04-13T02:04:07.260Z,9.60
2018-04-13T02:06:35.066Z,9.60
2018-04-13T02:09:03.612Z,9.50
2018-04-13T02:11:31.438Z,9.50
2018-04-13T02:13:59.186Z,9.60
2018-04-13T02:16:26.921Z,9.50
2018-04-13T02:18:54.697Z,9.30
2018-04-13T02:21:22.461Z,9.30
2018-04-13T02:23:50.163Z,9.30
2018-04-13T02:26:18.969Z,9.30
2018-04-13T02:28:47.491Z,9.30
2018-04-13T02:31:15.245Z,9.30
2018-04-13T02:33:42.940Z,9.20
2018-04-13T02:36:10.689Z,8.90
2018-04-13T02:38:39.375Z,8.90
2018-04-13T02:41:07.164Z,9.10
2018-04-13T02:43:35.799Z,9.00
2018-04-13T02:46:03.707Z,9.10
2018-04-13T02:48:32.399Z,9.10
2018-04-13T02:51:00.171Z,9.10
2018-04-13T02:53:27.919Z,9.10
2018-04-13T02:55:56.647Z,9.00
2018-04-13T02:58:24.379Z,8.90
2018-04-13T03:00:52.306Z,8.90
2018-04-13T03:03:20.235Z,8.90
2018-04-13T03:05:47.992Z,8.90
2018-04-13T03:08:16.507Z,9.30
2018-04-13T03:10:44.491Z,9.30
2018-04-13T03:13:12.232Z,9.20
2018-04-13T03:15:40.127Z,9.00
2018-04-13T03:18:08.788Z,8.80
2018-04-13T03:20:36.546Z,8.90
2018-04-13T03:23:05.120Z,8.90
2018-04-13T03:25:33.968Z,8.90
2018-04-13T03:28:02.343Z,8.80
2018-04-13T03:30:30.156Z,8.80
2018-04-13T03:32:57.874Z,8.90
2018-04-13T03:35:25.584Z,8.80
2018-04-13T03:37:53.334Z,8.70
2018-04-13T03:40:21.338Z,8.60
2018-04-13T03:42:49.256Z,8.70
2018-04-13T03:45:20.013Z,8.60
2018-04-13T03:47:47.754Z,8.70
2018-04-13T03:50:16.404Z,8.70
2018-04-13T03:52:44.181Z,8.70
2018-04-13T03:55:12.061Z,8.70
2018-04-13T03:57:40.397Z,8.70
2018-04-13T04:00:08.276Z,8.60
2018-04-13T04:02:36.069Z,8.50
2018-04-13T04:05:03.843Z,8.50
2018-04-13T04:07:31.861Z,8.60
2018-04-13T04:09:59.615Z,8.60
2018-04-13T04:12:27.434Z,8.70
2018-04-13T04:14:55.487Z,8.70
2018-04-13T04:17:23.307Z,8.80
2018-04-13T04:20:02.801Z,8.80
2018-04-13T04:22:42.381Z,8.80
2018-04-13T04:25:19.722Z,8.80
2018-04-13T04:27:47.545Z,8.90
2018-04-13T04:30:17.276Z,8.80
2018-04-13T04:32:45.132Z,8.50
2018-04-13T04:35:13.479Z,8.50
2018-04-13T04:37:42.970Z,8.30
2018-04-13T04:40:11.168Z,8.20
2018-04-13T04:42:39.049Z,8.40
2018-04-13T04:45:07.097Z,8.30
2018-04-13T04:47:35.028Z,8.40
2018-04-13T04:50:03.121Z,8.50
2018-04-13T04:52:31.252Z,8.50
2018-04-13T04:54:59.629Z,8.50
2018-04-13T04:57:27.602Z,8.50
2018-04-13T04:59:56.621Z,8.50
2018-04-13T05:02:24.533Z,8.60
2018-04-13T05:04:53.474Z,8.70
2018-04-13T05:07:21.522Z,8.50
2018-04-13T05:09:49.299Z,8.60
2018-04-13T05:12:17.237Z,8.60
2018-04-13T05:14:45.198Z,8.70
2018-04-13T05:17:13.386Z,8.70
2018-04-13T05:19:41.439Z,8.70
2018-04-13T05:22:09.375Z,8.80
2018-04-13T05:24:38.636Z,8.80
2018-04-13T05:27:06.769Z,8.80
2018-04-13T05:29:35.671Z,8.80
2018-04-13T05:32:03.762Z,8.90
2018-04-13T05:34:32.531Z,8.70
2018-04-13T05:37:00.459Z,8.70
2018-04-13T05:39:29.909Z,8.80
2018-04-13T05:41:57.895Z,8.80
2018-04-13T05:44:25.853Z,8.80
2018-04-13T05:46:54.871Z,8.90
2018-04-13T05:49:23.067Z,9.00
2018-04-13T05:51:51.143Z,8.90
2018-04-13T05:54:19.256Z,9.00
2018-04-13T05:56:48.051Z,9.00
2018-04-13T05:59:16.707Z,9.00
2018-04-13T06:01:44.674Z,9.20
2018-04-13T06:04:12.692Z,9.30
2018-04-13T06:06:41.350Z,9.50
2018-04-13T06:09:11.441Z,9.50
2018-04-13T06:11:39.213Z,9.50
2018-04-13T06:14:07.209Z,9.60
2018-04-13T06:16:35.342Z,9.50
2018-04-13T06:19:03.295Z,9.60
2018-04-13T06:21:32.033Z,9.70
2018-04-13T06:24:00.005Z,9.70
2018-04-13T06:26:28.175Z,9.70
2018-04-13T06:28:56.195Z,9.70
2018-04-13T06:31:24.174Z,9.80
2018-04-13T06:33:52.068Z,9.80
2018-04-13T06:36:19.975Z,10.00
2018-04-13T06:38:48.017Z,10.10
2018-04-13T06:41:15.901Z,10.20
2018-04-13T06:43:44.005Z,10.30
2018-04-13T06:46:12.985Z,10.50
2018-04-13T06:48:40.956Z,10.50
2018-04-13T06:51:09.018Z,10.70
2018-04-13T06:53:39.653Z,10.80
2018-04-13T06:56:14.578Z,10.90
2018-04-13T06:58:43.325Z,11.10
2018-04-13T07:01:11.609Z,11.10
2018-04-13T07:03:40.730Z,11.50
2018-04-13T07:06:09.900Z,11.50
2018-04-13T07:08:38.334Z,11.60
2018-04-13T07:11:08.358Z,11.70
2018-04-13T07:13:38.862Z,11.90
2018-04-13T07:16:08.413Z,12.10
2018-04-13T07:18:36.639Z,12.10
2018-04-13T07:21:05.825Z,12.10
2018-04-13T07:23:33.932Z,12.10
2018-04-13T07:26:02.786Z,12.00
2018-04-13T07:28:30.912Z,12.00
2018-04-13T07:30:59.507Z,12.00
2018-04-13T07:33:28.348Z,12.10
2018-04-13T07:35:56.614Z,12.10
2018-04-13T07:38:25.278Z,12.10
2018-04-13T07:40:54.835Z,12.20
2018-04-13T07:43:24.569Z,12.30
2018-04-13T07:45:54.285Z,12.30
2018-04-13T07:48:22.604Z,12.50
2018-04-13T07:50:50.944Z,12.70
2018-04-13T07:53:19.930Z,12.90
2018-04-13T07:55:47.997Z,13.00
2018-04-13T07:58:16.011Z,13.00
2018-04-13T08:00:44.167Z,13.00
2018-04-13T08:03:12.180Z,13.10
2018-04-13T08:05:41.279Z,13.40
2018-04-13T08:08:10.409Z,13.50
2018-04-13T08:10:38.905Z,13.50
2018-04-13T08:13:07.108Z,13.50
2018-04-13T08:15:35.446Z,13.40
2018-04-13T08:18:04.055Z,13.30
2018-04-13T08:20:32.920Z,13.40
2018-04-13T08:23:02.913Z,13.50
2018-04-13T08:25:34.115Z,13.50
2018-04-13T08:28:02.630Z,13.70
2018-04-13T08:30:30.807Z,13.70
2018-04-13T08:32:58.917Z,13.70
2018-04-13T08:35:27.456Z,13.70
2018-04-13T08:37:56.402Z,13.80
2018-04-13T08:40:25.210Z,14.00
2018-04-13T08:42:53.548Z,14.10
2018-04-13T08:45:23.656Z,14.10
2018-04-13T08:47:52.745Z,13.90
2018-04-13T08:50:21.589Z,13.90
2018-04-13T08:52:50.554Z,13.90
2018-04-13T08:55:19.324Z,14.00
2018-04-13T08:57:47.733Z,14.00
2018-04-13T09:00:16.640Z,14.10
2018-04-13T09:02:45.345Z,14.20
2018-04-13T09:05:14.711Z,14.40
2018-04-13T09:07:43.977Z,14.50
2018-04-13T09:10:14.004Z,14.60
2018-04-13T09:12:44.778Z,14.70
2018-04-13T09:15:14.941Z,14.80
2018-04-13T09:17:44.340Z,14.90
2018-04-13T09:20:13.527Z,14.90
2018-04-13T09:22:43.246Z,15.10
2018-04-13T09:25:13.288Z,15.20
2018-04-13T09:27:42.894Z,15.20
2018-04-13T09:30:14.705Z,15.30
2018-04-13T09:32:50.933Z,15.30
2018-04-13T09:35:27.077Z,15.30
2018-04-13T09:37:57.782Z,15.30
2018-04-13T09:40:28.691Z,15.40
2018-04-13T09:42:59.162Z,15.50
2018-04-13T09:45:28.304Z,15.40
2018-04-13T09:48:01.869Z,15.40
2018-04-13T09:53:14.143Z,15.20
2018-04-13T09:55:54.578Z,15.30
2018-04-13T09:58:28.247Z,15.20
2018-04-13T10:01:03.091Z,15.20
2018-04-13T10:03:39.382Z,15.20
2018-04-13T10:06:11.509Z,15.30
2018-04-13T10:08:45.153Z,15.40
2018-04-13T10:11:17.130Z,15.30
2018-04-13T10:13:50.247Z,15.30
2018-04-13T10:16:23.626Z,15.30
2018-04-13T10:18:55.957Z,15.40
2018-04-13T10:21:28.278Z,15.40
2018-04-13T10:24:02.759Z,15.70
2018-04-13T10:26:35.240Z,15.50
2018-04-13T10:29:06.579Z,15.50
2018-04-13T10:31:39.033Z,15.40
2018-04-13T10:34:11.378Z,15.20
2018-04-13T10:36:44.301Z,15.00
2018-04-13T10:39:17.720Z,14.80
2018-04-13T10:41:50.013Z,14.80
2018-04-13T10:44:23.034Z,14.90
2018-04-13T10:46:54.567Z,14.90
2018-04-13T10:49:27.186Z,14.90
2018-04-13T10:52:00.956Z,14.90
2018-04-13T10:54:33.630Z,14.70
2018-04-13T10:57:05.613Z,14.60
2018-04-13T10:59:38.372Z,14.70
2018-04-13T11:02:10.629Z,14.70
2018-04-13T11:04:46.210Z,14.70
2018-04-13T11:07:20.751Z,14.90
2018-04-13T11:09:52.611Z,14.90
2018-04-13T11:12:25.223Z,14.90
2018-04-13T11:14:58.088Z,15.00
2018-04-13T11:17:36.848Z,15.00
2018-04-13T11:37:23.584Z,15.40
2018-04-13T11:39:55.244Z,15.40
2018-04-13T11:42:26.579Z,15.30
2018-04-13T11:44:59.359Z,15.20
2018-04-13T11:47:32.397Z,15.20
2018-04-13T11:50:05.061Z,15.20
2018-04-13T11:52:36.718Z,15.30
2018-04-13T11:55:09.029Z,15.20
2018-04-13T11:57:41.501Z,15.20
2018-04-13T12:00:14.486Z,15.20
2018-04-13T12:02:47.217Z,15.40
2018-04-13T12:05:20.182Z,15.40
2018-04-13T12:07:52.705Z,15.50
2018-04-13T12:10:25.163Z,15.60
2018-04-13T12:12:56.816Z,15.60
2018-04-13T12:15:28.554Z,15.80
2018-04-13T12:18:00.073Z,16.10
2018-04-13T12:20:32.065Z,16.40
2018-04-13T12:23:03.300Z,16.80
2018-04-13T12:25:35.568Z,16.90
2018-04-13T12:28:06.531Z,16.70
2018-04-13T12:30:38.683Z,16.80
2018-04-13T12:33:09.846Z,16.90
2018-04-13T12:35:42.394Z,17.20
2018-04-13T12:38:13.280Z,17.20
2018-04-13T12:40:44.601Z,17.20
2018-04-13T12:43:16.241Z,17.10
2018-04-13T12:45:47.446Z,16.60
2018-04-13T12:48:18.521Z,16.50
2018-04-13T12:50:50.291Z,16.30
2018-04-13T12:53:22.065Z,16.30
2018-04-13T12:55:54.005Z,16.40
2018-04-13T12:58:24.512Z,16.40
2018-04-13T13:00:55.566Z,16.40
2018-04-13T13:03:26.624Z,16.40
2018-04-13T13:05:57.079Z,16.20
2018-04-13T13:08:27.824Z,16.30
2018-04-13T13:10:58.415Z,16.30
2018-04-13T13:13:30.509Z,16.30
2018-04-13T13:16:02.762Z,16.60
2018-04-13T13:18:34.377Z,16.60
2018-04-13T13:21:06.070Z,16.80
2018-04-13T13:23:37.240Z,16.90
2018-04-13T13:26:09.684Z,16.90
2018-04-13T13:28:40.640Z,16.70
2018-04-13T13:31:11.876Z,16.70
2018-04-13T13:33:43.059Z,16.70
2018-04-13T13:36:15.688Z,16.70
2018-04-13T13:38:46.210Z,16.70
2018-04-13T13:41:17.586Z,16.60
2018-04-13T13:43:47.876Z,16.50
2018-04-13T13:46:18.741Z,16.40
2018-04-13T13:48:49.997Z,16.70
2018-04-13T13:51:21.749Z,16.60
2018-04-13T13:53:53.637Z,16.60
2018-04-13T13:56:25.176Z,16.80
2018-04-13T13:58:55.835Z,16.80
2018-04-13T14:01:26.026Z,16.70
2018-04-13T14:03:56.851Z,16.60
2018-04-13T14:06:28.502Z,16.60
2018-04-13T14:08:59.661Z,16.60
2018-04-13T14:11:30.364Z,16.70
2018-04-13T14:14:01.745Z,16.90
2018-04-13T14:16:33.082Z,16.90
2018-04-13T14:19:03.696Z,17.10
2018-04-13T14:21:35.515Z,16.80
2018-04-13T14:24:05.913Z,16.80
2018-04-13T14:26:37.051Z,16.70
2018-04-13T14:29:08.076Z,16.70
2018-04-13T14:31:39.352Z,16.70
2018-04-13T14:34:10.630Z,16.80
2018-04-13T14:36:41.079Z,16.80
2018-04-13T14:39:12.923Z,17.00
2018-04-13T14:41:44.733Z,16.90
2018-04-13T14:44:16.682Z,16.90
2018-04-13T14:46:46.599Z,16.70
2018-04-13T14:49:16.750Z,16.60
2018-04-13T14:51:48.211Z,16.70
2018-04-13T14:54:24.818Z,16.60
2018-04-13T14:57:01.281Z,16.70
2018-04-13T14:59:37.686Z,16.80
2018-04-13T15:02:08.736Z,16.80
2018-04-13T15:04:39.107Z,16.70
2018-04-13T15:07:10.841Z,16.60
2018-04-13T15:09:40.367Z,16.60
2018-04-13T15:12:11.291Z,16.70
2018-04-13T15:14:44.420Z,16.70
2018-04-13T15:17:14.747Z,16.60
2018-04-13T15:19:44.348Z,16.60
2018-04-13T15:22:14.762Z,16.70
2018-04-13T15:24:47.375Z,16.70
2018-04-13T15:27:18.641Z,16.70
2018-04-13T15:29:50.358Z,16.70
2018-04-13T15:32:20.440Z,16.50
2018-04-13T15:34:51.849Z,16.40
2018-04-13T15:37:20.910Z,16.40
2018-04-13T15:39:52.358Z,16.20
2018-04-13T15:42:24.016Z,16.30
2018-04-13T15:44:53.495Z,16.50
2018-04-13T15:47:24.448Z,16.40
2018-04-13T15:49:55.526Z,16.50
2018-04-13T15:52:24.261Z,16.50
2018-04-13T15:54:54.150Z,16.50
2018-04-13T15:57:23.905Z,16.40
2018-04-13T15:59:53.425Z,16.40
2018-04-13T16:02:22.664Z,16.30
2018-04-13T16:04:51.638Z,16.30
2018-04-13T16:07:20.962Z,16.40
2018-04-13T16:09:51.023Z,16.60
2018-04-13T16:12:20.455Z,16.60
2018-04-13T16:14:50.864Z,16.60
2018-04-13T16:17:20.182Z,16.50
2018-04-13T16:19:49.571Z,16.50
2018-04-13T16:22:20.057Z,16.50
2018-04-13T16:24:50.290Z,16.50
2018-04-13T16:27:19.787Z,16.50
2018-04-13T16:29:48.653Z,16.50
2018-04-13T16:32:19.391Z,16.50
2018-04-13T16:34:48.011Z,16.50
2018-04-13T16:37:17.525Z,16.50
2018-04-13T16:39:46.274Z,16.50
2018-04-13T16:42:15.019Z,16.50
2018-04-13T16:44:45.288Z,16.50
2018-04-13T16:47:15.019Z,16.60
2018-04-13T16:49:43.967Z,16.60
2018-04-13T16:52:14.301Z,16.60
2018-04-13T16:54:46.435Z,16.60
2018-04-13T16:57:14.803Z,16.60
2018-04-13T16:59:43.572Z,16.60
2018-04-13T17:02:11.773Z,16.60
2018-04-13T17:04:40.698Z,16.50
2018-04-13T17:07:10.902Z,16.50
2018-04-13T17:09:39.593Z,16.50
2018-04-13T17:12:09.209Z,16.50
2018-04-13T17:14:38.005Z,16.50
2018-04-13T17:17:07.139Z,16.40
2018-04-13T17:19:35.683Z,16.30
2018-04-13T17:22:04.180Z,16.30
2018-04-13T17:24:32.539Z,16.20
2018-04-13T17:27:01.235Z,16.10
2018-04-13T17:29:29.779Z,16.10
2018-04-13T17:31:58.252Z,16.00
2018-04-13T17:34:27.192Z,15.90
2018-04-13T17:36:56.636Z,15.90
2018-04-13T17:39:25.914Z,15.90
2018-04-13T17:41:54.654Z,15.90
2018-04-13T17:44:23.952Z,15.90
2018-04-13T17:46:53.239Z,15.90
2018-04-13T17:49:22.544Z,15.90
2018-04-13T17:51:51.605Z,15.80
2018-04-13T17:54:20.406Z,15.80
2018-04-13T17:56:48.987Z,15.80
2018-04-13T17:59:17.551Z,15.70
2018-04-13T18:01:45.556Z,15.70
2018-04-13T18:04:14.904Z,15.70
2018-04-13T18:06:44.931Z,15.70
2018-04-13T18:09:14.338Z,15.70
2018-04-13T18:11:42.600Z,15.70
2018-04-13T18:14:10.829Z,15.70
2018-04-13T18:16:39.808Z,15.70
2018-04-13T18:19:07.845Z,15.70
2018-04-13T18:21:36.402Z,15.60
2018-04-13T18:24:05.055Z,15.60
2018-04-13T18:26:34.566Z,15.50
2018-04-13T18:29:03.270Z,15.50
2018-04-13T18:31:31.228Z,15.40
2018-04-13T18:33:59.440Z,15.40
2018-04-13T18:36:28.120Z,15.40
2018-04-13T18:38:57.388Z,15.30
2018-04-13T18:41:25.364Z,15.30
2018-04-13T18:43:53.342Z,15.30
2018-04-13T18:46:21.785Z,15.30
2018-04-13T18:48:49.756Z,15.30
2018-04-13T18:51:19.616Z,15.20
2018-04-13T18:53:47.935Z,15.10
2018-04-13T18:56:16.485Z,15.10
2018-04-13T18:58:44.638Z,15.10
2018-04-13T19:01:12.548Z,15.00
2018-04-13T19:03:42.415Z,15.00
2018-04-13T19:06:11.146Z,15.00
2018-04-13T19:08:39.177Z,15.00
2018-04-13T19:11:07.499Z,15.00
2018-04-13T19:13:35.630Z,15.00
2018-04-13T19:16:03.794Z,15.00
2018-04-13T19:18:31.789Z,15.00
2018-04-13T19:21:00.667Z,15.00
2018-04-13T19:23:28.811Z,15.00
2018-04-13T19:25:56.917Z,14.90
2018-04-13T19:28:25.683Z,14.80
2018-04-13T19:30:53.959Z,14.80
2018-04-13T19:33:21.958Z,14.70
2018-04-13T19:35:51.140Z,14.70
2018-04-13T19:38:20.458Z,14.70
2018-04-13T19:40:48.921Z,14.70
2018-04-13T19:43:18.153Z,14.70
2018-04-13T19:45:46.081Z,14.70
2018-04-13T19:48:14.465Z,14.70
2018-04-13T19:50:42.495Z,14.70
2018-04-13T19:53:10.605Z,14.60
2018-04-13T19:55:39.684Z,14.60
2018-04-13T19:58:08.053Z,14.50
2018-04-13T20:00:35.957Z,14.50
2018-04-13T20:03:04.732Z,14.50
2018-04-13T20:05:32.829Z,14.50
2018-04-13T20:08:00.852Z,14.50
2018-04-13T20:10:29.683Z,14.40
2018-04-13T20:12:58.566Z,14.40
2018-04-13T20:15:26.531Z,14.30
2018-04-13T20:17:54.379Z,14.30
2018-04-13T20:20:22.430Z,14.30
2018-04-13T20:22:51.342Z,14.20
2018-04-13T20:25:19.348Z,14.20
2018-04-13T20:27:47.597Z,14.20
2018-04-13T20:30:15.613Z,14.20
2018-04-13T20:32:43.621Z,14.20
2018-04-13T20:35:11.799Z,14.20
2018-04-13T20:37:39.698Z,14.20
2018-04-13T20:40:07.486Z,14.20
2018-04-13T20:42:35.423Z,14.20
2018-04-13T20:45:03.763Z,14.10
2018-04-13T20:47:31.695Z,14.10
2018-04-13T20:49:59.825Z,14.10
2018-04-13T20:52:27.855Z,14.10
2018-04-13T20:54:56.623Z,14.00
2018-04-13T20:57:24.599Z,14.00
2018-04-13T20:59:53.310Z,13.50
2018-04-13T21:02:22.007Z,13.50
2018-04-13T21:04:50.160Z,13.50
2018-04-13T21:07:17.956Z,13.50
2018-04-13T21:09:46.701Z,13.70
2018-04-13T21:12:14.748Z,13.60
2018-04-13T21:14:42.976Z,13.70
2018-04-13T21:17:10.906Z,13.70
2018-04-13T21:19:38.957Z,13.70
2018-04-13T21:22:07.871Z,13.70
2018-04-13T21:24:37.249Z,13.70
2018-04-13T21:27:05.354Z,13.70
2018-04-13T21:29:34.065Z,13.70
2018-04-13T21:32:02.164Z,13.60
2018-04-13T21:34:30.925Z,13.60
2018-04-13T21:36:58.854Z,13.60
2018-04-13T21:39:26.712Z,13.60
2018-04-13T21:41:54.581Z,13.60
2018-04-13T21:44:22.426Z,13.60
2018-04-13T21:46:50.605Z,13.50
2018-04-13T21:49:18.481Z,13.40
2018-04-13T21:51:46.576Z,13.40
2018-04-13T21:54:14.656Z,13.40
2018-04-13T21:56:42.732Z,13.40
2018-04-13T21:59:10.833Z,13.30
2018-04-13T22:01:38.573Z,13.30
2018-04-13T22:04:06.850Z,13.30
2018-04-13T22:06:34.685Z,13.30
2018-04-13T22:09:02.754Z,13.20
2018-04-13T22:11:30.687Z,13.20
2018-04-13T22:14:11.059Z,13.20
2018-04-13T22:16:40.681Z,13.20
2018-04-13T22:19:08.776Z,13.10
2018-04-13T22:21:37.492Z,13.20
2018-04-13T22:24:06.152Z,13.10
2018-04-13T22:26:33.977Z,13.10
2018-04-13T22:29:02.745Z,13.10
2018-04-13T22:31:32.491Z,13.10
2018-04-13T22:34:00.536Z,13.10
2018-04-13T22:36:28.498Z,13.10
2018-04-13T22:38:56.594Z,13.00
2018-04-13T22:41:24.489Z,13.00
2018-04-13T22:43:52.346Z,13.00
2018-04-13T22:46:20.076Z,13.00
2018-04-13T22:48:48.145Z,13.00
2018-04-13T22:51:16.009Z,13.00
2018-04-13T22:53:43.968Z,13.00
2018-04-13T22:56:11.834Z,13.00
2018-04-13T22:58:40.389Z,13.00
2018-04-13T23:01:09.295Z,12.90
2018-04-13T23:03:37.545Z,12.90
2018-04-13T23:06:05.634Z,12.80
2018-04-13T23:08:34.499Z,12.80
2018-04-13T23:11:03.675Z,12.80
2018-04-13T23:13:32.213Z,12.80
2018-04-13T23:16:00.051Z,12.80
2018-04-13T23:18:28.420Z,12.70
2018-04-13T23:20:56.154Z,12.70
2018-04-13T23:23:24.219Z,12.60
2018-04-13T23:25:52.008Z,12.60
2018-04-13T23:28:19.936Z,12.60
2018-04-13T23:30:47.932Z,12.50
2018-04-13T23:33:15.695Z,12.40
2018-04-13T23:35:43.702Z,12.50
2018-04-13T23:38:11.950Z,12.50
2018-04-13T23:40:40.043Z,12.40
2018-04-13T23:43:07.791Z,12.30
2018-04-13T23:45:35.619Z,12.30
2018-04-13T23:48:03.397Z,12.20
2018-04-13T23:56:15.574Z,12.10
2018-04-13T23:58:43.500Z,12.00
